Time;durP1;ratioP1;P1;durP2;ratioP2;P2;SDS_P1;SDS_P2;PMS_P1;PMS_P2;Temp;Humidity;BMP_temperature;BMP_pressure;BME280_temperature;BME280_humidity;BME280_pressure;Samples;Min_cycle;Max_cycle;Signal;HPM_P1;HPM_P2
2023/08/08 00:00:50;;;;;;;4.32;2.10;;;13.20;99.90;;;;;;5034887;28;20491;-25
2023/08/08 00:03:16;;;;;;;7.30;2.28;;;13.20;99.90;;;;;;5035149;28;20094;-24
2023/08/08 00:05:41;;;;;;;6.10;2.65;;;13.10;99.90;;;;;;5035215;28;20042;-25
2023/08/08 00:08:07;;;;;;;7.20;2.50;;;13.00;99.90;;;;;;5034142;28;20046;-25
2023/08/08 00:10:33;;;;;;;8.32;3.22;;;12.90;99.90;;;;;;5035049;28;20053;-25
2023/08/08 00:12:59;;;;;;;7.47;3.15;;;12.90;99.90;;;;;;5033850;28;20045;-25
2023/08/08 00:15:24;;;;;;;10.63;2.90;;;12.80;99.90;;;;;;5033978;28;20495;-25
2023/08/08 00:17:50;;;;;;;7.38;3.13;;;12.90;99.90;;;;;;5033688;28;20049;-25
2023/08/08 00:20:16;;;;;;;7.82;2.72;;;12.90;99.90;;;;;;5033669;28;20158;-25
2023/08/08 00:22:41;;;;;;;8.25;2.83;;;12.80;99.90;;;;;;5034507;28;20049;-25
2023/08/08 00:25:08;;;;;;;6.00;2.90;;;12.70;99.90;;;;;;5034943;28;20051;-24
2023/08/08 00:27:34;;;;;;;6.35;2.92;;;12.70;99.90;;;;;;5034750;28;20060;-25
2023/08/08 00:30:00;;;;;;;6.00;2.47;;;12.70;99.90;;;;;;5034652;28;20053;-24
2023/08/08 00:32:26;;;;;;;6.50;2.95;;;12.60;99.90;;;;;;5034259;28;20511;-25
2023/08/08 00:34:52;;;;;;;8.18;3.15;;;12.50;99.90;;;;;;5034615;28;20080;-25
2023/08/08 00:37:18;;;;;;;7.47;3.15;;;12.50;99.90;;;;;;5034491;28;20136;-24
2023/08/08 00:39:45;;;;;;;5.75;3.10;;;12.40;99.90;;;;;;5032979;28;20053;-25
2023/08/08 00:42:13;;;;;;;12.82;4.78;;;12.20;99.90;;;;;;5035011;28;20057;-24
2023/08/08 00:44:40;;;;;;;7.65;3.92;;;12.20;99.90;;;;;;5034339;28;20419;-24
2023/08/08 00:47:08;;;;;;;7.05;2.65;;;12.10;99.90;;;;;;5034323;28;20103;-25
2023/08/08 00:49:33;;;;;;;7.53;3.15;;;12.10;99.90;;;;;;5016353;28;20060;-24
2023/08/08 00:51:59;;;;;;;7.47;3.13;;;12.00;99.90;;;;;;5034277;28;20045;-24
2023/08/08 00:54:26;;;;;;;9.25;3.72;;;12.00;99.90;;;;;;5034810;28;20440;-24
2023/08/08 00:56:51;;;;;;;6.80;3.75;;;11.90;99.90;;;;;;5034190;28;20136;-24
2023/08/08 00:59:19;;;;;;;6.85;3.47;;;11.90;99.90;;;;;;5033529;28;20172;-25
2023/08/08 01:01:45;;;;;;;7.53;3.72;;;11.90;99.90;;;;;;5034102;28;20049;-25
2023/08/08 01:04:11;;;;;;;11.55;4.50;;;11.90;99.90;;;;;;5033392;28;20106;-24
2023/08/08 01:07:07;;;;;;;10.32;4.32;;;12.00;99.90;;;;;;5034799;28;20053;-25
2023/08/08 01:09:38;;;;;;;10.48;3.30;;;12.00;99.90;;;;;;5032881;28;20046;-25
2023/08/08 01:12:07;;;;;;;6.75;3.15;;;12.00;99.90;;;;;;5033069;28;20049;-25
2023/08/08 01:14:35;;;;;;;10.20;3.38;;;12.00;99.90;;;;;;5033624;28;20045;-25
2023/08/08 01:17:02;;;;;;;10.27;3.65;;;12.00;99.90;;;;;;5033940;28;20492;-24
2023/08/08 01:19:30;;;;;;;7.35;3.45;;;11.90;99.90;;;;;;5033828;28;20052;-25
2023/08/08 01:22:02;;;;;;;7.10;3.00;;;12.00;99.90;;;;;;5033808;28;20041;-25
2023/08/08 01:24:30;;;;;;;9.18;3.60;;;12.00;99.90;;;;;;5033775;28;20057;-25
2023/08/08 01:26:56;;;;;;;9.35;2.80;;;12.00;99.90;;;;;;5033775;28;20061;-25
2023/08/08 01:29:22;;;;;;;8.55;3.13;;;12.00;99.90;;;;;;5032234;28;20406;-25
2023/08/08 01:31:48;;;;;;;10.40;4.05;;;12.00;99.90;;;;;;5032530;28;20132;-24
2023/08/08 01:34:14;;;;;;;11.27;3.42;;;12.10;99.90;;;;;;5032361;28;20050;-25
2023/08/08 01:36:51;;;;;;;10.50;3.25;;;12.10;99.90;;;;;;5033614;28;20472;-25
2023/08/08 01:39:22;;;;;;;8.65;4.57;;;12.10;99.90;;;;;;5033671;28;20128;-24
2023/08/08 01:41:48;;;;;;;7.25;3.20;;;12.20;99.90;;;;;;5032695;28;20045;-24
2023/08/08 01:44:16;;;;;;;5.65;2.95;;;12.20;99.90;;;;;;5032439;28;20068;-24
2023/08/08 01:46:42;;;;;;;13.07;3.10;;;12.30;99.90;;;;;;5016093;28;20399;-24
2023/08/08 01:49:07;;;;;;;7.75;3.15;;;12.30;99.90;;;;;;5033530;28;20046;-24
2023/08/08 01:51:33;;;;;;;9.90;2.85;;;12.40;99.90;;;;;;5033537;28;20064;-25
2023/08/08 01:53:59;;;;;;;8.82;2.80;;;12.60;99.90;;;;;;5015923;28;20042;-24
2023/08/08 01:56:24;;;;;;;7.30;3.08;;;12.60;99.90;;;;;;5034253;28;20081;-24
2023/08/08 01:58:50;;;;;;;7.45;3.30;;;12.60;99.90;;;;;;5033173;28;20053;-25
2023/08/08 02:01:16;;;;;;;10.70;3.40;;;12.70;99.90;;;;;;5032272;28;20049;-25
2023/08/08 02:03:41;;;;;;;8.20;3.72;;;12.70;99.90;;;;;;5033487;28;20111;-24
2023/08/08 02:06:07;;;;;;;8.70;3.35;;;12.90;99.90;;;;;;5015690;28;20057;-25
2023/08/08 02:08:32;;;;;;;7.00;3.17;;;12.90;99.90;;;;;;5033346;28;20053;-25
2023/08/08 02:10:58;;;;;;;9.43;2.92;;;12.90;99.90;;;;;;5033350;28;20048;-24
2023/08/08 02:13:24;;;;;;;9.95;2.72;;;13.00;99.90;;;;;;5033616;28;20048;-24
2023/08/08 02:15:49;;;;;;;4.68;2.33;;;13.00;99.90;;;;;;5033846;28;20152;-24
2023/08/08 02:18:15;;;;;;;7.13;3.28;;;12.90;99.90;;;;;;5032091;28;20049;-24
2023/08/08 02:20:41;;;;;;;7.38;2.72;;;12.90;99.90;;;;;;5033804;28;20143;-24
2023/08/08 02:23:06;;;;;;;4.93;2.60;;;12.90;99.90;;;;;;5035323;28;20045;-24
2023/08/08 02:25:32;;;;;;;6.80;2.67;;;12.90;99.90;;;;;;5002978;28;20077;-24
2023/08/08 02:27:58;;;;;;;7.13;2.50;;;12.90;99.90;;;;;;5036969;28;20045;-24
2023/08/08 02:30:23;;;;;;;7.78;2.95;;;12.90;99.90;;;;;;5036939;28;20041;-25
2023/08/08 02:32:49;;;;;;;6.13;2.35;;;12.80;99.90;;;;;;5036858;28;20045;-24
2023/08/08 02:35:15;;;;;;;10.85;3.20;;;12.80;99.90;;;;;;5035705;28;20541;-24
2023/08/08 02:37:41;;;;;;;6.72;2.75;;;12.80;99.90;;;;;;5036121;28;20053;-24
2023/08/08 02:40:07;;;;;;;5.93;2.67;;;12.90;99.90;;;;;;5036764;28;20045;-24
2023/08/08 02:42:33;;;;;;;7.97;2.72;;;12.90;99.90;;;;;;5036699;28;20060;-24
2023/08/08 02:44:59;;;;;;;5.20;2.40;;;12.90;99.90;;;;;;5036405;28;20128;-24
2023/08/08 02:47:25;;;;;;;11.05;2.95;;;12.90;99.90;;;;;;5036619;28;20403;-24
2023/08/08 02:49:50;;;;;;;7.95;2.75;;;13.00;99.90;;;;;;5036580;28;20049;-24
2023/08/08 02:52:16;;;;;;;6.60;2.55;;;13.00;99.90;;;;;;5037351;28;20471;-25
2023/08/08 02:54:42;;;;;;;6.93;1.52;;;12.80;99.90;;;;;;5036519;28;20072;-24
2023/08/08 02:57:10;;;;;;;6.97;1.70;;;12.80;99.90;;;;;;5036035;28;20486;-25
2023/08/08 02:59:36;;;;;;;5.72;1.92;;;12.70;99.90;;;;;;5036446;28;20053;-25
2023/08/08 03:02:03;;;;;;;5.90;2.10;;;12.70;99.90;;;;;;5037169;28;20045;-25
2023/08/08 03:04:29;;;;;;;6.32;1.58;;;12.60;99.90;;;;;;5018762;28;20147;-24
2023/08/08 03:06:55;;;;;;;8.80;2.00;;;12.60;99.90;;;;;;5019701;28;20136;-25
2023/08/08 03:09:21;;;;;;;5.20;1.55;;;12.50;99.90;;;;;;5036257;28;20124;-25
2023/08/08 03:11:47;;;;;;;6.20;2.20;;;12.40;99.90;;;;;;5036151;28;20045;-25
2023/08/08 03:14:13;;;;;;;6.88;1.90;;;12.40;99.90;;;;;;5035844;28;20053;-25
2023/08/08 03:16:39;;;;;;;3.97;1.73;;;12.40;99.90;;;;;;5036063;28;20095;-25
2023/08/08 03:19:05;;;;;;;7.15;2.03;;;12.50;99.90;;;;;;5034858;28;20050;-25
2023/08/08 03:21:31;;;;;;;7.32;1.40;;;12.50;99.90;;;;;;5036006;28;20050;-25
2023/08/08 03:23:57;;;;;;;3.65;1.70;;;12.40;99.90;;;;;;5036475;28;20464;-25
2023/08/08 03:26:23;;;;;;;5.13;1.35;;;12.40;99.90;;;;;;5035783;28;20044;-25
2023/08/08 03:28:50;;;;;;;6.05;1.35;;;12.40;99.90;;;;;;5036402;28;20045;-25
2023/08/08 03:31:17;;;;;;;2.65;0.95;;;12.30;99.90;;;;;;5035146;28;20052;-25
2023/08/08 03:33:43;;;;;;;3.42;1.27;;;12.30;99.90;;;;;;5035416;28;20060;-24
2023/08/08 03:36:09;;;;;;;2.85;1.20;;;12.30;99.90;;;;;;5035701;28;20077;-25
2023/08/08 03:38:36;;;;;;;5.55;1.45;;;12.20;99.90;;;;;;5035091;28;20052;-24
2023/08/08 03:41:01;;;;;;;2.05;0.98;;;12.10;99.90;;;;;;5034973;28;20045;-24
2023/08/08 03:43:27;;;;;;;7.50;1.50;;;12.00;99.90;;;;;;5034633;28;20049;-25
2023/08/08 03:45:53;;;;;;;4.82;1.48;;;12.10;99.90;;;;;;5035479;28;20050;-25
2023/08/08 03:48:18;;;;;;;6.85;1.45;;;12.10;99.90;;;;;;5035316;28;20053;-24
2023/08/08 03:50:46;;;;;;;3.90;0.77;;;12.10;99.90;;;;;;5036044;28;20134;-24
2023/08/08 03:53:12;;;;;;;4.82;1.10;;;12.20;99.90;;;;;;5035493;28;20049;-25
2023/08/08 03:55:38;;;;;;;4.10;1.23;;;12.20;99.90;;;;;;5034192;28;20479;-25
2023/08/08 03:58:05;;;;;;;5.15;1.30;;;12.30;99.90;;;;;;5034125;28;20056;-24
2023/08/08 04:00:31;;;;;;;3.03;1.50;;;12.30;99.90;;;;;;5035292;28;20049;-24
2023/08/08 04:02:57;;;;;;;5.30;1.40;;;12.30;99.90;;;;;;5035193;28;20049;-25
2023/08/08 04:05:23;;;;;;;4.63;1.23;;;12.20;99.90;;;;;;5035603;28;20057;-24
2023/08/08 04:07:48;;;;;;;4.95;1.65;;;12.30;99.90;;;;;;5017427;28;20100;-25
2023/08/08 04:10:14;;;;;;;3.03;1.45;;;12.20;99.90;;;;;;5034882;28;20046;-25
2023/08/08 04:12:40;;;;;;;5.40;1.67;;;12.20;99.90;;;;;;5017325;28;20077;-25
2023/08/08 04:15:06;;;;;;;6.75;1.00;;;12.30;99.90;;;;;;5017846;28;20092;-25
2023/08/08 04:17:32;;;;;;;5.68;1.48;;;12.20;99.90;;;;;;5034987;28;20395;-25
2023/08/08 04:19:57;;;;;;;8.65;2.72;;;12.20;99.90;;;;;;5034567;28;20046;-25
2023/08/08 04:22:23;;;;;;;5.22;1.52;;;12.20;99.90;;;;;;5017958;28;20056;-25
2023/08/08 04:24:49;;;;;;;5.47;1.70;;;12.20;99.90;;;;;;5034746;28;20037;-25
2023/08/08 04:27:14;;;;;;;7.88;1.88;;;12.20;99.90;;;;;;5034711;28;20531;-25
2023/08/08 04:29:40;;;;;;;3.67;1.10;;;12.40;99.90;;;;;;5034728;28;20195;-25
2023/08/08 04:32:06;;;;;;;8.00;1.60;;;12.50;99.90;;;;;;5017149;28;20387;-25
2023/08/08 04:34:32;;;;;;;3.85;1.50;;;12.60;99.90;;;;;;5034190;28;20046;-25
2023/08/08 04:36:57;;;;;;;8.57;2.20;;;12.60;99.90;;;;;;5034415;28;20045;-25
2023/08/08 04:39:23;;;;;;;5.65;1.30;;;12.60;99.90;;;;;;5017120;28;20049;-25
2023/08/08 04:41:49;;;;;;;2.83;1.00;;;12.60;99.90;;;;;;5033324;28;20045;-24
2023/08/08 04:44:14;;;;;;;8.00;1.45;;;12.70;99.90;;;;;;5035004;28;20132;-23
2023/08/08 04:46:40;;;;;;;3.95;1.00;;;12.70;99.90;;;;;;5033055;28;20049;-24
2023/08/08 04:49:06;;;;;;;6.95;1.10;;;12.70;99.90;;;;;;5034617;28;20132;-24
2023/08/08 04:51:31;;;;;;;9.88;1.52;;;12.80;99.90;;;;;;5033332;28;20098;-24
2023/08/08 04:53:57;;;;;;;3.38;1.65;;;12.90;99.90;;;;;;5033324;28;20523;-24
2023/08/08 04:56:23;;;;;;;6.30;1.25;;;13.00;99.90;;;;;;5034759;28;20050;-24
2023/08/08 04:58:48;;;;;;;5.78;1.23;;;13.00;99.90;;;;;;5034449;28;20049;-24
2023/08/08 05:01:17;;;;;;;6.13;1.23;;;13.00;99.90;;;;;;5033020;28;20041;-24
2023/08/08 05:03:43;;;;;;;6.60;1.00;;;13.00;99.90;;;;;;5032928;28;20129;-24
2023/08/08 05:06:08;;;;;;;6.53;1.33;;;13.00;99.90;;;;;;5033679;28;20144;-24
2023/08/08 05:08:34;;;;;;;5.88;1.10;;;13.00;99.90;;;;;;5000420;28;20387;-24
2023/08/08 05:11:00;;;;;;;2.60;0.70;;;13.00;99.90;;;;;;5034510;28;20052;-24
2023/08/08 05:13:26;;;;;;;6.18;1.13;;;13.00;99.90;;;;;;5033964;28;20058;-24
2023/08/08 05:15:51;;;;;;;9.15;1.55;;;13.00;99.90;;;;;;5032942;28;20049;-24
2023/08/08 05:18:17;;;;;;;6.18;1.00;;;13.10;99.90;;;;;;5033894;28;20045;-24
2023/08/08 05:20:43;;;;;;;7.18;1.27;;;13.10;99.90;;;;;;5033832;28;20084;-24
2023/08/08 05:23:09;;;;;;;4.78;0.70;;;13.10;99.90;;;;;;5033851;28;20053;-24
2023/08/08 05:25:34;;;;;;;4.43;1.15;;;13.20;99.90;;;;;;5016291;28;20045;-24
2023/08/08 05:28:00;;;;;;;9.38;1.08;;;13.30;99.90;;;;;;5033745;28;20046;-24
2023/08/08 05:30:26;;;;;;;7.22;1.13;;;13.30;99.90;;;;;;5033695;28;20077;-24
2023/08/08 05:32:51;;;;;;;4.45;0.90;;;13.40;99.90;;;;;;5034027;28;20512;-24
2023/08/08 05:35:17;;;;;;;3.60;0.98;;;13.40;99.90;;;;;;5033745;28;20132;-24
2023/08/08 05:37:43;;;;;;;4.07;0.82;;;13.40;99.90;;;;;;5032516;28;20049;-24
2023/08/08 05:40:10;;;;;;;7.60;0.93;;;13.50;99.90;;;;;;5016465;28;20476;-24
2023/08/08 05:42:37;;;;;;;6.90;1.75;;;13.60;99.90;;;;;;5033909;28;20085;-24
2023/08/08 05:45:03;;;;;;;5.78;1.35;;;13.80;99.90;;;;;;5032412;28;20041;-23
2023/08/08 05:47:29;;;;;;;4.30;0.55;;;13.90;99.90;;;;;;5016231;28;20093;-23
2023/08/08 05:49:54;;;;;;;8.30;1.10;;;13.80;99.90;;;;;;5033838;28;20465;-24
2023/08/08 05:52:21;;;;;;;6.43;1.20;;;14.00;99.90;;;;;;5033530;28;20042;-23
2023/08/08 05:54:47;;;;;;;4.88;1.27;;;14.50;99.90;;;;;;5033532;28;20045;-24
2023/08/08 05:57:13;;;;;;;4.40;1.25;;;15.10;12.70;;;;;;5035307;28;20049;-23
2023/08/08 05:59:38;;;;;;;5.97;1.40;;;15.40;1.00;;;;;;5036316;28;20091;-23
2023/08/08 06:02:04;;;;;;;2.47;0.80;;;15.50;99.90;;;;;;5019511;28;20130;-23
2023/08/08 06:04:30;;;;;;;5.95;1.58;;;15.60;99.90;;;;;;5037715;28;20072;-24
2023/08/08 06:06:56;;;;;;;3.95;0.95;;;15.80;99.90;;;;;;5036857;28;20483;-23
2023/08/08 06:09:22;;;;;;;2.60;0.60;;;16.00;99.90;;;;;;5037392;28;20459;-23
2023/08/08 06:11:48;;;;;;;2.65;0.75;;;15.60;99.90;;;;;;5036325;28;20451;-23
2023/08/08 06:14:14;;;;;;;7.95;1.63;;;15.40;99.90;;;;;;5037556;28;20062;-23
2023/08/08 06:16:39;;;;;;;3.25;0.60;;;15.50;99.90;;;;;;5037233;28;20119;-23
2023/08/08 06:19:06;;;;;;;11.20;1.20;;;15.60;99.90;;;;;;5036825;28;20053;-23
2023/08/08 06:21:31;;;;;;;3.53;0.75;;;15.60;99.90;;;;;;5035892;28;20573;-23
2023/08/08 06:23:57;;;;;;;3.17;0.63;;;15.50;99.90;;;;;;5037088;28;20152;-23
2023/08/08 06:26:23;;;;;;;4.97;0.75;;;15.50;99.90;;;;;;5036524;28;20137;-23
2023/08/08 06:28:51;;;;;;;5.43;1.05;;;15.50;99.90;;;;;;5036050;28;20140;-23
2023/08/08 06:31:17;;;;;;;5.22;0.90;;;15.50;99.90;;;;;;5035964;28;20483;-23
2023/08/08 06:33:43;;;;;;;7.50;0.57;;;15.50;99.90;;;;;;5036841;28;20514;-23
2023/08/08 06:36:09;;;;;;;5.05;0.70;;;15.50;96.00;;;;;;5037152;28;20045;-24
2023/08/08 06:38:35;;;;;;;6.60;0.80;;;15.50;99.90;;;;;;5020150;28;20508;-23
2023/08/08 06:41:02;;;;;;;3.63;0.57;;;15.50;99.90;;;;;;5036796;28;20046;-23
2023/08/08 06:43:28;;;;;;;3.90;0.95;;;15.50;99.90;;;;;;5035519;28;20041;-23
2023/08/08 06:45:55;;;;;;;4.60;1.08;;;15.60;99.90;;;;;;5035458;28;20044;-23
2023/08/08 06:48:21;;;;;;;4.32;0.70;;;15.50;28.40;;;;;;5036619;28;20053;-23
2023/08/08 06:50:46;;;;;;;3.40;0.50;;;15.60;55.70;;;;;;5035557;28;20128;-23
2023/08/08 06:53:12;;;;;;;4.18;1.20;;;15.60;11.80;;;;;;5036407;28;20048;-23
2023/08/08 06:55:38;;;;;;;3.72;0.80;;;15.60;1.00;;;;;;5035465;28;20056;-23
2023/08/08 06:58:03;;;;;;;4.60;0.80;;;15.70;1.00;;;;;;5037031;28;20049;-23
2023/08/08 07:00:29;;;;;;;3.80;0.82;;;15.80;99.90;;;;;;5036375;28;20076;-23
2023/08/08 07:02:55;;;;;;;4.05;0.75;;;15.80;1.00;;;;;;5036033;28;20128;-23
2023/08/08 07:05:22;;;;;;;5.15;0.90;;;15.90;1.00;;;;;;5019331;28;20057;-23
2023/08/08 07:07:50;;;;;;;5.25;0.82;;;16.00;1.00;;;;;;5034896;28;20050;-23
2023/08/08 07:10:15;;;;;;;4.93;1.67;;;16.00;1.00;;;;;;5034790;28;20046;-23
2023/08/08 07:12:41;;;;;;;3.97;0.60;;;16.10;1.00;;;;;;5034901;28;20069;-23
2023/08/08 07:15:09;;;;;;;5.07;0.68;;;16.00;99.90;;;;;;5036192;28;20472;-23
2023/08/08 07:17:35;;;;;;;7.53;1.33;;;16.10;1.00;;;;;;5036894;28;20057;-23
2023/08/08 07:20:02;;;;;;;2.63;0.70;;;16.20;99.90;;;;;;5018905;28;20049;-23
2023/08/08 07:22:27;;;;;;;7.10;1.05;;;16.10;99.90;;;;;;5033196;28;20491;-24
2023/08/08 07:24:53;;;;;;;4.13;0.70;;;16.30;99.90;;;;;;5035556;28;20049;-23
2023/08/08 07:27:19;;;;;;;3.30;0.82;;;16.40;99.90;;;;;;5035851;28;20037;-23
2023/08/08 07:29:45;;;;;;;4.85;0.98;;;16.40;15.60;;;;;;5036413;28;20056;-23
2023/08/08 07:32:10;;;;;;;3.92;0.80;;;16.50;99.90;;;;;;5035425;28;20128;-23
2023/08/08 07:34:36;;;;;;;6.82;1.33;;;16.40;99.90;;;;;;5018359;28;20048;-23
2023/08/08 07:37:02;;;;;;;4.93;0.70;;;16.40;99.00;;;;;;5035734;28;20446;-23
2023/08/08 07:39:28;;;;;;;5.80;0.68;;;16.40;99.90;;;;;;5035691;28;20050;-23
2023/08/08 07:41:54;;;;;;;3.65;0.60;;;16.70;96.70;;;;;;5035710;28;20147;-23
2023/08/08 07:44:20;;;;;;;6.32;1.55;;;16.60;99.90;;;;;;5035573;28;20562;-23
2023/08/08 07:46:46;;;;;;;5.35;0.98;;;16.30;1.00;;;;;;5035499;28;20045;-23
2023/08/08 07:49:12;;;;;;;7.10;1.38;;;16.30;99.90;;;;;;5035489;28;20052;-24
2023/08/08 07:51:38;;;;;;;4.75;0.98;;;16.30;94.20;;;;;;5051397;28;20116;-24
2023/08/08 07:54:08;;;;;;;4.47;0.77;;;16.50;99.90;;;;;;5035384;28;20041;-24
2023/08/08 07:56:34;;;;;;;4.53;0.90;;;16.60;26.90;;;;;;5035077;28;20499;-24
2023/08/08 07:59:01;;;;;;;3.55;0.80;;;16.60;1.00;;;;;;5035324;28;20053;-23
2023/08/08 08:01:27;;;;;;;5.22;1.52;;;16.40;99.90;;;;;;5035264;28;20060;-23
2023/08/08 08:03:53;;;;;;;3.83;0.90;;;16.30;99.90;;;;;;5017531;28;20041;-23
2023/08/08 08:06:19;;;;;;;3.92;0.55;;;16.40;1.00;;;;;;5033812;28;20400;-23
2023/08/08 08:08:45;;;;;;;3.17;1.15;;;16.40;87.30;;;;;;5034213;28;20055;-23
2023/08/08 08:11:12;;;;;;;3.72;0.40;;;16.40;99.90;;;;;;5035124;28;20050;-24
2023/08/08 08:13:39;;;;;;;6.25;0.93;;;16.40;1.00;;;;;;5035277;28;20170;-24
2023/08/08 08:16:05;;;;;;;3.58;0.68;;;16.40;99.90;;;;;;5050316;28;20083;-24
2023/08/08 08:18:31;;;;;;;4.82;0.77;;;16.50;54.80;;;;;;5034949;28;20048;-24
2023/08/08 08:20:56;;;;;;;8.05;1.50;;;16.60;99.90;;;;;;5033943;28;20095;-24
2023/08/08 08:23:22;;;;;;;3.92;0.70;;;16.40;94.50;;;;;;5034815;28;20080;-23
2023/08/08 08:25:48;;;;;;;6.00;0.73;;;16.30;99.90;;;;;;5033702;28;20041;-23
2023/08/08 08:28:15;;;;;;;6.05;0.95;;;16.30;39.60;;;;;;5034738;28;20060;-23
2023/08/08 08:30:40;;;;;;;9.13;1.65;;;16.20;99.90;;;;;;5050403;28;20132;-24
2023/08/08 08:33:07;;;;;;;6.93;0.77;;;16.20;99.90;;;;;;5034864;28;20456;-24
2023/08/08 08:35:34;;;;;;;4.90;0.90;;;16.20;99.90;;;;;;5034627;28;20049;-23
2023/08/08 08:38:00;;;;;;;4.13;1.13;;;16.30;98.80;;;;;;5034420;28;20108;-23
2023/08/08 08:40:28;;;;;;;5.18;0.80;;;16.30;99.90;;;;;;5049949;28;20054;-24
2023/08/08 08:43:01;;;;;;;4.82;0.60;;;16.90;99.90;;;;;;5091909;28;20451;-24
2023/08/08 08:45:29;;;;;;;7.97;1.02;;;17.20;99.90;;;;;;5091232;28;20054;-24
2023/08/08 08:47:57;;;;;;;4.90;1.45;;;17.40;1.00;;;;;;5091162;28;20044;-24
2023/08/08 08:50:31;;;;;;;6.53;1.02;;;17.00;99.90;;;;;;5091958;28;20131;-24
2023/08/08 08:52:58;;;;;;;7.82;0.75;;;16.60;99.90;;;;;;5073340;28;20379;-24
2023/08/08 08:55:24;;;;;;;2.83;0.63;;;16.60;1.00;;;;;;5091061;28;20139;-24
2023/08/08 08:57:51;;;;;;;1.38;0.43;;;17.00;99.90;;;;;;5091043;28;20493;-24
2023/08/08 09:00:17;;;;;;;3.50;0.50;;;17.20;1.00;;;;;;5089767;28;20058;-24
2023/08/08 09:02:43;;;;;;;4.82;1.58;;;17.00;99.90;;;;;;5091672;28;20048;-24
2023/08/08 09:05:10;;;;;;;7.30;0.60;;;16.70;20.40;;;;;;5091706;28;20424;-24
2023/08/08 09:07:36;;;;;;;2.95;0.50;;;16.30;99.90;;;;;;5091444;28;20390;-24
2023/08/08 09:10:03;;;;;;;2.13;0.43;;;15.90;99.90;;;;;;5090752;28;20199;-24
2023/08/08 09:12:31;;;;;;;1.83;0.60;;;16.00;1.00;;;;;;5090740;28;20040;-24
2023/08/08 09:15:01;;;;;;;3.65;0.45;;;16.70;99.90;;;;;;5089463;28;20045;-25
2023/08/08 09:17:28;;;;;;;4.45;0.88;;;17.20;99.90;;;;;;5091214;28;20049;-25
2023/08/08 09:19:54;;;;;;;4.10;0.45;;;17.80;90.20;;;;;;5090600;28;20398;-24
2023/08/08 09:22:21;;;;;;;4.50;0.63;;;18.00;1.00;;;;;;5090738;28;20101;-25
2023/08/08 09:24:47;;;;;;;3.80;0.70;;;18.30;75.30;;;;;;5089537;28;20048;-25
2023/08/08 09:27:13;;;;;;;6.30;0.60;;;18.60;99.90;;;;;;5091004;28;20053;-24
2023/08/08 09:29:41;;;;;;;3.22;0.70;;;18.30;32.70;;;;;;5089420;28;20060;-24
2023/08/08 09:32:07;;;;;;;5.55;1.00;;;18.10;83.80;;;;;;5090790;28;20128;-24
2023/08/08 09:34:33;;;;;;;1.75;0.40;;;18.40;9.20;;;;;;5088777;28;20494;-25
2023/08/08 09:37:00;;;;;;;2.13;0.45;;;18.60;99.90;;;;;;5090267;28;20105;-25
2023/08/08 09:39:26;;;;;;;2.72;0.43;;;18.80;99.90;;;;;;5090778;28;20049;-25
2023/08/08 09:41:52;;;;;;;6.47;0.57;;;18.70;1.00;;;;;;5090373;28;20067;-24
2023/08/08 09:44:18;;;;;;;5.90;0.73;;;18.80;99.90;;;;;;5089191;28;20056;-25
2023/08/08 09:46:43;;;;;;;3.53;0.50;;;18.20;1.00;;;;;;5089173;28;20044;-24
2023/08/08 09:49:13;;;;;;;4.20;0.40;;;18.10;78.00;;;;;;5090046;28;20541;-25
2023/08/08 09:51:39;;;;;;;5.03;0.70;;;17.20;1.00;;;;;;5088778;28;20047;-25
2023/08/08 09:54:06;;;;;;;3.95;0.50;;;16.40;99.90;;;;;;5078009;28;20052;-24
2023/08/08 09:56:34;;;;;;;4.70;0.90;;;14.80;99.90;;;;;;5076665;28;20102;-24
2023/08/08 09:59:01;;;;;;;3.63;0.90;;;14.00;99.90;;;;;;5076324;28;20044;-25
2023/08/08 10:01:28;;;;;;;3.20;0.65;;;13.70;99.90;;;;;;5076238;28;20509;-24
2023/08/08 10:03:54;;;;;;;1.15;0.30;;;13.50;99.90;;;;;;5058145;28;20571;-25
2023/08/08 10:06:19;;;;;;;2.60;0.70;;;13.40;99.90;;;;;;5076232;28;20083;-25
2023/08/08 10:08:46;;;;;;;3.58;0.55;;;13.80;99.90;;;;;;5076454;28;20083;-25
2023/08/08 10:11:12;;;;;;;3.72;1.17;;;13.90;99.90;;;;;;5076693;28;20053;-25
2023/08/08 10:13:46;;;;;;;2.97;0.52;;;14.70;99.90;;;;;;5074911;28;20055;-25
2023/08/08 10:16:12;;;;;;;9.40;1.05;;;14.80;99.90;;;;;;5075099;28;20556;-24
2023/08/08 10:18:38;;;;;;;4.45;0.75;;;14.60;99.90;;;;;;5075973;28;20052;-25
2023/08/08 10:21:05;;;;;;;5.20;0.93;;;14.60;99.90;;;;;;5041461;28;20044;-25
2023/08/08 10:23:38;;;;;;;4.68;0.85;;;14.60;99.90;;;;;;5074902;28;20083;-25
2023/08/08 10:26:04;;;;;;;10.18;1.23;;;15.70;99.90;;;;;;5074683;28;20048;-26
2023/08/08 10:28:33;;;;;;;4.15;0.95;;;16.60;1.00;;;;;;5075795;28;20128;-26
2023/08/08 10:31:06;;;;;;;5.50;0.60;;;17.10;91.70;;;;;;5075749;28;20044;-26
2023/08/08 10:33:49;;;;;;;3.63;0.90;;;17.50;1.00;;;;;;5075685;28;20123;-26
2023/08/08 10:36:15;;;;;;;4.25;0.70;;;17.70;99.90;;;;;;5075734;28;20048;-26
2023/08/08 10:38:51;;;;;;;6.07;0.93;;;17.70;1.00;;;;;;5074486;28;20135;-26
2023/08/08 10:41:21;;;;;;;3.95;0.82;;;17.40;1.00;;;;;;5074905;28;20579;-26
2023/08/08 10:43:53;;;;;;;4.45;0.88;;;17.60;71.60;;;;;;5075647;28;20060;-26
2023/08/08 10:46:30;;;;;;;4.22;0.57;;;17.80;1.00;;;;;;5076091;28;20439;-25
2023/08/08 10:49:01;;;;;;;5.13;0.70;;;17.80;1.00;;;;;;5074170;28;20517;-25
2023/08/08 10:51:46;;;;;;;5.45;1.17;;;17.70;1.00;;;;;;5075894;28;20042;-25
2023/08/08 10:54:27;;;;;;;2.40;0.30;;;18.10;99.90;;;;;;5074367;28;20048;-25
2023/08/08 10:56:55;;;;;;;2.35;0.45;;;17.70;1.00;;;;;;5075863;28;20099;-25
2023/08/08 10:59:47;;;;;;;1.63;0.43;;;17.60;48.60;;;;;;5074935;28;20486;-26
2023/08/08 11:02:14;;;;;;;4.38;0.50;;;17.70;99.90;;;;;;5055443;28;20064;-26
2023/08/08 11:04:41;;;;;;;3.03;0.98;;;17.80;99.90;;;;;;5074113;28;20049;-26
2023/08/08 11:07:06;;;;;;;1.02;0.50;;;18.00;1.00;;;;;;5075044;28;20055;-25
2023/08/08 11:09:32;;;;;;;2.35;0.55;;;18.00;99.90;;;;;;5075564;28;20127;-25
2023/08/08 11:11:58;;;;;;;1.23;0.25;;;18.10;99.90;;;;;;5075016;28;20044;-25
2023/08/08 11:14:24;;;;;;;3.90;0.50;;;18.30;99.90;;;;;;5074933;28;20091;-25
2023/08/08 11:16:51;;;;;;;6.15;0.80;;;17.70;99.90;;;;;;5074834;28;20052;-25
2023/08/08 11:19:19;;;;;;;2.50;0.57;;;17.50;99.90;;;;;;5073323;28;20044;-24
2023/08/08 11:21:45;;;;;;;5.35;0.68;;;18.10;19.60;;;;;;5073473;28;20037;-25
2023/08/08 11:24:12;;;;;;;5.35;0.63;;;18.30;96.30;;;;;;5074731;28;20066;-26
2023/08/08 11:26:40;;;;;;;2.42;0.70;;;18.60;1.00;;;;;;5074667;28;20084;-25
2023/08/08 11:29:06;;;;;;;4.43;0.88;;;18.40;1.00;;;;;;5074855;28;20048;-25
2023/08/08 11:31:34;;;;;;;2.63;0.70;;;18.50;99.90;;;;;;5075111;28;20119;-25
2023/08/08 11:34:00;;;;;;;3.17;0.90;;;18.60;1.00;;;;;;5074394;28;20080;-25
2023/08/08 11:36:30;;;;;;;3.25;0.75;;;18.70;99.90;;;;;;5074445;28;20133;-26
2023/08/08 11:38:57;;;;;;;4.55;0.73;;;18.70;99.90;;;;;;5074145;28;20071;-25
2023/08/08 11:41:24;;;;;;;3.55;0.60;;;18.00;1.00;;;;;;5074207;28;20367;-24
2023/08/08 11:43:53;;;;;;;5.65;1.38;;;17.20;99.90;;;;;;5073642;28;20149;-25
2023/08/08 11:46:23;;;;;;;1.67;0.68;;;17.40;99.90;;;;;;5073015;28;20056;-25
2023/08/08 11:48:48;;;;;;;3.70;0.70;;;18.20;56.40;;;;;;5056562;28;20079;-25
2023/08/08 11:51:17;;;;;;;2.70;0.88;;;18.30;99.90;;;;;;5074172;28;20121;-25
2023/08/08 11:53:51;;;;;;;6.15;0.60;;;18.80;1.00;;;;;;5072915;28;20098;-25
2023/08/08 11:56:20;;;;;;;3.53;1.05;;;19.10;99.90;;;;;;5056464;28;20052;-25
2023/08/08 11:58:51;;;;;;;3.67;0.88;;;19.00;99.90;;;;;;5074327;28;20079;-25
2023/08/08 12:01:23;;;;;;;2.17;0.45;;;18.70;1.00;;;;;;5073951;28;20041;-25
2023/08/08 12:03:48;;;;;;;3.17;0.80;;;18.60;99.90;;;;;;5056337;28;20049;-25
2023/08/08 12:06:16;;;;;;;2.22;0.65;;;18.00;1.00;;;;;;5073990;28;20049;-25
2023/08/08 12:08:46;;;;;;;2.95;0.93;;;17.50;99.90;;;;;;5073002;28;20131;-25
2023/08/08 12:11:13;;;;;;;3.97;0.55;;;16.30;1.00;;;;;;5072807;28;20036;-24
2023/08/08 12:13:44;;;;;;;2.58;0.82;;;15.80;99.90;;;;;;5072660;28;20599;-25
2023/08/08 12:16:11;;;;;;;3.67;0.60;;;16.60;1.00;;;;;;5074230;28;20368;-25
2023/08/08 12:18:38;;;;;;;4.43;1.05;;;17.40;1.00;;;;;;5072577;28;20101;-25
2023/08/08 12:21:08;;;;;;;2.03;0.55;;;17.20;73.20;;;;;;5073653;28;20080;-26
2023/08/08 12:23:34;;;;;;;4.82;0.77;;;16.90;99.90;;;;;;5074538;28;20390;-25
2023/08/08 12:26:02;;;;;;;3.17;0.80;;;16.80;1.00;;;;;;5072476;28;20047;-25
2023/08/08 12:28:29;;;;;;;4.22;0.73;;;16.70;1.00;;;;;;5072598;28;20082;-25
2023/08/08 12:30:55;;;;;;;3.88;0.55;;;16.60;1.00;;;;;;5073924;28;20071;-24
2023/08/08 12:33:20;;;;;;;6.25;1.02;;;17.10;99.90;;;;;;5072417;28;20471;-25
2023/08/08 12:35:47;;;;;;;2.22;0.73;;;17.20;99.90;;;;;;5073335;28;20048;-25
2023/08/08 12:38:14;;;;;;;4.35;0.70;;;17.00;99.90;;;;;;5072320;28;20102;-25
2023/08/08 12:40:40;;;;;;;4.38;0.70;;;17.00;10.30;;;;;;5072235;28;20048;-25
2023/08/08 12:43:06;;;;;;;6.13;0.73;;;17.60;99.90;;;;;;5071810;28;20457;-24
2023/08/08 12:45:32;;;;;;;3.53;0.70;;;18.20;99.90;;;;;;5073473;28;20048;-25